createdAt,value
2023-01-02T00:01:43.214Z,6.00
2023-01-02T00:04:11.991Z,5.70
2023-01-02T00:06:40.704Z,6.03
2023-01-02T00:09:10.284Z,6.37
2023-01-02T00:11:39.437Z,6.37
2023-01-02T00:14:08.019Z,6.80
2023-01-02T00:16:40.778Z,7.17
2023-01-02T00:19:09.846Z,6.60
2023-01-02T00:21:38.412Z,6.30
2023-01-02T00:24:07.321Z,6.57
2023-01-02T00:26:35.939Z,5.83
2023-01-02T00:29:04.583Z,5.20
2023-01-02T00:31:33.483Z,5.93
2023-01-02T00:34:03.442Z,5.53
2023-01-02T00:36:31.886Z,5.40
2023-01-02T00:39:00.332Z,6.80
2023-01-02T00:41:28.855Z,5.50
2023-01-02T00:43:57.558Z,6.50
2023-01-02T00:46:26.164Z,6.00
2023-01-02T00:48:54.796Z,6.00
2023-01-02T00:51:25.039Z,5.73
2023-01-02T00:53:53.645Z,5.57
2023-01-02T00:56:22.467Z,6.13
2023-01-02T00:58:51.075Z,5.97
2023-01-02T01:01:19.924Z,5.33
2023-01-02T01:03:48.582Z,5.83
2023-01-02T01:06:17.159Z,6.00
2023-01-02T01:08:47.115Z,5.63
2023-01-02T01:11:17.619Z,5.90
2023-01-02T01:13:46.727Z,6.10
2023-01-02T01:16:17.277Z,7.77
2023-01-02T01:18:47.380Z,5.63
2023-01-02T01:21:19.887Z,5.50
2023-01-02T01:23:53.102Z,4.97
2023-01-02T01:26:23.630Z,4.83
2023-01-02T01:28:54.203Z,4.20
2023-01-02T01:31:23.736Z,3.73
2023-01-02T01:33:52.420Z,3.90
2023-01-02T01:36:24.016Z,4.17
2023-01-02T01:38:54.324Z,3.83
2023-01-02T01:41:25.840Z,4.23
2023-01-02T01:43:55.978Z,4.00
2023-01-02T01:46:30.360Z,4.30
2023-01-02T01:49:03.870Z,4.70
2023-01-02T01:51:36.861Z,4.87
2023-01-02T01:54:10.675Z,4.57
2023-01-02T01:56:44.243Z,4.63
2023-01-02T01:59:15.184Z,4.70
2023-01-02T02:01:45.132Z,5.93
2023-01-02T02:04:15.486Z,4.50
2023-01-02T02:06:44.267Z,5.10
2023-01-02T02:09:19.331Z,4.50
2023-01-02T02:11:50.560Z,4.43
2023-01-02T02:14:19.382Z,5.20
2023-01-02T02:16:55.323Z,5.10
2023-01-02T02:20:03.839Z,5.00
2023-01-02T02:22:49.561Z,3.90
2023-01-02T02:25:50.234Z,3.90
2023-01-02T02:29:00.843Z,4.10
2023-01-02T02:31:40.261Z,4.40
2023-01-02T02:34:16.942Z,4.67
2023-01-02T02:36:51.467Z,4.80
2023-01-02T02:39:30.603Z,4.63
2023-01-02T02:42:06.635Z,4.70
2023-01-02T02:44:47.624Z,4.97
2023-01-02T02:47:29.460Z,4.80
2023-01-02T02:50:07.346Z,4.87
2023-01-02T02:52:42.624Z,4.90
2023-01-02T02:55:15.544Z,4.63
2023-01-02T02:57:46.409Z,5.67
2023-01-02T03:00:19.721Z,5.33
2023-01-02T03:02:49.823Z,4.83
2023-01-02T03:05:26.176Z,4.80
2023-01-02T03:07:59.834Z,4.30
2023-01-02T03:10:36.253Z,4.63
2023-01-02T03:13:13.840Z,4.10
2023-01-02T03:15:49.783Z,3.87
2023-01-02T03:18:31.392Z,3.77
2023-01-02T03:21:07.131Z,3.90
2023-01-02T03:23:40.450Z,4.00
2023-01-02T03:26:09.501Z,3.60
2023-01-02T03:28:41.832Z,3.40
2023-01-02T03:31:15.182Z,3.33
2023-01-02T03:33:52.226Z,3.30
2023-01-02T03:36:25.384Z,3.30
2023-01-02T03:38:59.411Z,2.90
2023-01-02T03:41:33.459Z,3.03
2023-01-02T03:44:04.487Z,3.07
2023-01-02T03:46:36.218Z,3.23
2023-01-02T03:49:09.878Z,3.30
2023-01-02T03:51:38.742Z,3.50
2023-01-02T03:54:08.564Z,3.13
2023-01-02T03:56:49.479Z,2.83
2023-01-02T03:59:27.760Z,3.30
2023-01-02T04:02:06.388Z,3.17
2023-01-02T04:04:48.574Z,3.13
2023-01-02T04:07:25.540Z,2.70
2023-01-02T04:09:57.956Z,2.60
2023-01-02T04:12:28.133Z,2.60
2023-01-02T04:15:00.896Z,2.53
2023-01-02T04:17:35.206Z,2.80
2023-01-02T04:20:09.835Z,3.00
2023-01-02T04:22:44.091Z,2.80
2023-01-02T04:25:14.895Z,3.00
2023-01-02T04:27:50.119Z,2.87
2023-01-02T04:30:19.234Z,2.50
2023-01-02T04:32:49.231Z,2.30
2023-01-02T04:35:22.820Z,2.50
2023-01-02T04:37:52.568Z,2.50
2023-01-02T04:40:25.328Z,2.77
2023-01-02T04:42:54.410Z,3.00
2023-01-02T04:45:23.014Z,2.70
2023-01-02T04:47:52.145Z,2.90
2023-01-02T04:50:22.193Z,2.67
2023-01-02T04:52:50.839Z,2.67
2023-01-02T04:55:19.443Z,2.80
2023-01-02T04:57:48.041Z,2.70
2023-01-02T05:00:17.302Z,3.00
2023-01-02T05:02:45.919Z,2.47
2023-01-02T05:05:14.768Z,2.77
2023-01-02T05:07:44.748Z,2.30
2023-01-02T05:10:16.212Z,2.50
2023-01-02T05:12:45.643Z,2.40
2023-01-02T05:15:14.580Z,2.40
2023-01-02T05:17:44.196Z,2.83
2023-01-02T05:20:14.630Z,2.77
2023-01-02T05:23:02.972Z,2.70
2023-01-02T05:25:37.132Z,2.87
2023-01-02T05:28:08.606Z,2.60
2023-01-02T05:30:39.469Z,2.73
2023-01-02T05:33:08.042Z,2.70
2023-01-02T05:35:36.496Z,2.50
2023-01-02T05:38:07.685Z,2.80
2023-01-02T05:40:37.556Z,2.93
2023-01-02T05:43:06.909Z,2.80
2023-01-02T05:45:35.669Z,3.00
2023-01-02T05:48:04.377Z,3.07
2023-01-02T05:50:33.032Z,3.13
2023-01-02T05:53:01.579Z,2.70
2023-01-02T05:55:31.502Z,3.07
2023-01-02T05:58:02.561Z,3.30
2023-01-02T06:00:31.100Z,3.83
2023-01-02T06:02:59.689Z,3.57
2023-01-02T06:05:28.228Z,3.90
2023-01-02T06:07:56.799Z,3.30
2023-01-02T06:10:25.382Z,3.40
2023-01-02T06:12:55.350Z,3.30
2023-01-02T06:15:23.907Z,3.53
2023-01-02T06:17:52.763Z,3.30
2023-01-02T06:20:21.444Z,3.27
2023-01-02T06:22:50.003Z,3.40
2023-01-02T06:25:18.601Z,3.27
2023-01-02T06:27:47.369Z,3.53
2023-01-02T06:30:17.449Z,3.20
2023-01-02T06:32:46.013Z,3.53
2023-01-02T06:35:14.638Z,3.60
2023-01-02T06:37:45.247Z,3.80
2023-01-02T06:40:14.020Z,3.20
2023-01-02T06:42:44.827Z,3.10
2023-01-02T06:45:13.808Z,3.17
2023-01-02T06:47:43.788Z,3.10
2023-01-02T06:50:12.449Z,3.20
2023-01-02T06:52:42.185Z,3.00
2023-01-02T06:55:12.466Z,3.13
2023-01-02T06:57:40.948Z,3.23
2023-01-02T07:00:11.782Z,3.20
2023-01-02T07:02:42.364Z,3.77
2023-01-02T07:05:13.050Z,3.23
2023-01-02T07:07:41.826Z,3.77
2023-01-02T07:10:11.194Z,3.57
2023-01-02T07:12:40.314Z,3.30
2023-01-02T07:15:09.896Z,2.67
2023-01-02T07:17:38.449Z,2.80
2023-01-02T07:20:08.201Z,2.50
2023-01-02T07:22:38.106Z,2.70
2023-01-02T07:25:07.804Z,3.30
2023-01-02T07:27:36.373Z,2.63
2023-01-02T07:30:11.199Z,2.60
2023-01-02T07:32:41.185Z,2.73
2023-01-02T07:35:11.102Z,2.80
2023-01-02T07:37:43.500Z,2.40
2023-01-02T07:40:13.598Z,2.80
2023-01-02T07:42:45.430Z,2.40
2023-01-02T07:45:14.241Z,2.70
2023-01-02T07:47:42.904Z,2.90
2023-01-02T07:50:13.717Z,2.40
2023-01-02T07:52:44.654Z,2.37
2023-01-02T07:55:13.495Z,2.80
2023-01-02T07:57:42.041Z,2.80
2023-01-02T08:00:12.154Z,2.83
2023-01-02T08:02:44.020Z,2.80
2023-01-02T08:05:12.839Z,2.57
2023-01-02T08:07:44.996Z,2.63
2023-01-02T08:10:17.348Z,3.70
2023-01-02T08:12:47.331Z,3.13
2023-01-02T08:15:15.926Z,2.80
2023-01-02T08:17:44.469Z,3.00
2023-01-02T08:20:13.307Z,3.20
2023-01-02T08:22:41.737Z,2.80
2023-01-02T08:25:11.635Z,3.10
2023-01-02T08:27:41.903Z,3.83
2023-01-02T08:30:12.396Z,4.00
2023-01-02T08:32:43.190Z,4.00
2023-01-02T08:35:11.696Z,4.20
2023-01-02T08:37:41.205Z,3.83
2023-01-02T08:40:12.938Z,4.00
2023-01-02T08:42:44.468Z,3.80
2023-01-02T08:45:13.787Z,4.50
2023-01-02T08:47:42.257Z,4.60
2023-01-02T08:50:10.979Z,3.97
2023-01-02T08:52:39.531Z,4.60
2023-01-02T08:55:08.825Z,4.60
2023-01-02T08:57:37.287Z,4.90
2023-01-02T09:00:08.217Z,4.87
2023-01-02T09:02:37.188Z,3.83
2023-01-02T09:05:06.616Z,4.70
2023-01-02T09:07:35.999Z,4.47
2023-01-02T09:10:04.791Z,4.37
2023-01-02T09:12:33.383Z,5.10
2023-01-02T09:15:01.877Z,5.73
2023-01-02T09:17:31.781Z,6.07
2023-01-02T09:20:00.294Z,6.83
2023-01-02T09:22:30.174Z,9.40
2023-01-02T09:24:58.767Z,11.30
2023-01-02T09:27:27.304Z,9.40
2023-01-02T09:29:56.602Z,12.27
2023-01-02T09:32:25.091Z,12.60
2023-01-02T09:34:56.067Z,12.03
2023-01-02T09:37:24.511Z,12.40
2023-01-02T09:39:53.016Z,12.67
2023-01-02T09:42:21.636Z,12.30
2023-01-02T09:44:54.007Z,11.70
2023-01-02T09:47:25.243Z,12.53
2023-01-02T09:49:57.165Z,11.97
2023-01-02T09:52:29.049Z,14.47
2023-01-02T09:54:57.832Z,13.13
2023-01-02T09:57:38.144Z,15.70
2023-01-02T10:00:10.465Z,13.10
2023-01-02T10:02:50.921Z,11.70
2023-01-02T10:05:48.465Z,13.30
2023-01-02T10:08:32.224Z,12.07
2023-01-02T10:11:11.834Z,12.50
2023-01-02T10:14:17.551Z,12.80
2023-01-02T10:16:39.534Z,11.63
2023-01-02T10:19:17.824Z,11.77
2023-01-02T10:21:50.222Z,12.33
2023-01-02T10:24:25.452Z,12.30
2023-01-02T10:26:55.268Z,12.63
2023-01-02T10:29:30.360Z,12.47
2023-01-02T10:32:01.394Z,12.53
2023-01-02T10:34:38.636Z,12.73
2023-01-02T10:37:14.939Z,12.70
2023-01-02T10:39:46.612Z,11.27
2023-01-02T10:42:16.806Z,9.80
2023-01-02T10:44:47.075Z,11.30
2023-01-02T10:47:22.897Z,11.03
2023-01-02T10:49:54.474Z,10.80
2023-01-02T10:52:29.755Z,10.37
2023-01-02T10:55:00.821Z,11.33
2023-01-02T10:57:41.182Z,10.60
2023-01-02T11:00:28.242Z,10.87
2023-01-02T11:02:59.698Z,11.50
2023-01-02T11:05:29.920Z,12.17
2023-01-02T11:08:00.916Z,10.50
2023-01-02T11:10:31.532Z,10.00
2023-01-02T11:13:04.381Z,9.87
2023-01-02T11:15:34.845Z,9.43
2023-01-02T11:18:04.599Z,8.23
2023-01-02T11:20:35.498Z,8.03
2023-01-02T11:23:07.169Z,7.87
2023-01-02T11:25:40.500Z,7.27
2023-01-02T11:28:18.119Z,7.03
2023-01-02T11:30:48.371Z,6.40
2023-01-02T11:33:28.850Z,6.70
2023-01-02T11:35:59.046Z,7.13
2023-01-02T11:38:41.273Z,7.60
2023-01-02T11:41:25.698Z,7.50
2023-01-02T11:43:58.336Z,6.90
2023-01-02T11:46:33.671Z,8.13
2023-01-02T11:49:08.629Z,7.90
2023-01-02T11:51:40.307Z,7.33
2023-01-02T11:54:15.418Z,7.10
2023-01-02T11:56:46.783Z,7.43
2023-01-02T11:59:19.668Z,7.97
2023-01-02T12:01:57.052Z,7.23
2023-01-02T12:04:25.705Z,6.80
2023-01-02T12:07:19.121Z,6.80
2023-01-02T12:10:02.455Z,6.00
2023-01-02T12:12:45.898Z,5.83
2023-01-02T12:15:44.157Z,6.03
2023-01-02T12:18:26.580Z,5.70
2023-01-02T12:21:05.078Z,5.60
2023-01-02T12:23:58.990Z,7.43
2023-01-02T12:26:35.748Z,6.33
2023-01-02T12:29:46.343Z,6.00
2023-01-02T12:32:54.929Z,5.28
2023-01-02T12:35:55.306Z,6.40
2023-01-02T12:38:33.636Z,5.70
2023-01-02T12:41:15.910Z,5.90
2023-01-02T12:44:01.597Z,5.50
2023-01-02T12:46:47.507Z,5.28
2023-01-02T12:49:33.000Z,4.80
2023-01-02T12:52:09.513Z,5.50
2023-01-02T12:54:57.447Z,6.40
2023-01-02T12:57:31.515Z,6.70
2023-01-02T13:00:29.518Z,6.87
2023-01-02T13:03:21.976Z,7.70
2023-01-02T13:05:56.277Z,7.00
2023-01-02T13:08:29.736Z,7.67
2023-01-02T13:11:02.776Z,8.17
2023-01-02T13:13:36.450Z,8.00
2023-01-02T13:16:22.609Z,8.00
2023-01-02T13:19:16.625Z,9.13
2023-01-02T13:21:51.665Z,11.30
2023-01-02T13:24:25.091Z,8.80
2023-01-02T13:26:54.862Z,9.93
2023-01-02T13:29:29.543Z,9.10
2023-01-02T13:31:59.567Z,8.67
2023-01-02T13:34:31.093Z,10.23
2023-01-02T13:37:03.080Z,8.80
2023-01-02T13:39:45.768Z,9.07
2023-01-02T13:42:41.336Z,9.83
2023-01-02T13:45:15.686Z,10.30
2023-01-02T13:47:52.072Z,10.80
2023-01-02T13:50:26.480Z,10.70
2023-01-02T13:53:20.774Z,10.53
2023-01-02T13:56:16.808Z,10.50
2023-01-02T13:58:50.482Z,11.77
2023-01-02T14:02:04.468Z,10.70
2023-01-02T14:04:37.684Z,14.10
2023-01-02T14:07:47.829Z,10.47
2023-01-02T14:10:28.997Z,10.40
2023-01-02T14:13:01.741Z,10.47
2023-01-02T14:15:31.830Z,10.10
2023-01-02T14:18:05.056Z,10.53
2023-01-02T14:20:37.079Z,10.33
2023-01-02T14:23:24.171Z,11.07
2023-01-02T14:25:54.016Z,11.13
2023-01-02T14:28:26.200Z,10.43
2023-01-02T14:30:56.168Z,11.53
2023-01-02T14:33:32.351Z,11.53
2023-01-02T14:36:07.663Z,11.47
2023-01-02T14:38:41.563Z,11.90
2023-01-02T14:41:51.247Z,11.47
2023-01-02T14:44:19.981Z,12.43
2023-01-02T14:46:50.377Z,13.33
2023-01-02T14:49:27.192Z,13.47
2023-01-02T14:52:03.290Z,13.63
2023-01-02T14:54:39.794Z,15.00
2023-01-02T14:57:26.022Z,15.77
2023-01-02T14:59:55.497Z,15.60
2023-01-02T15:02:30.812Z,16.93
2023-01-02T15:05:06.793Z,17.70
2023-01-02T15:07:40.731Z,18.27
2023-01-02T15:10:15.949Z,19.87
2023-01-02T15:13:03.825Z,17.93
2023-01-02T15:15:35.792Z,16.57
2023-01-02T15:18:07.614Z,16.50
2023-01-02T15:20:37.166Z,17.07
2023-01-02T15:23:07.237Z,17.77
2023-01-02T15:25:39.405Z,17.17
2023-01-02T15:28:23.239Z,17.23
2023-01-02T15:31:00.684Z,18.67
2023-01-02T15:33:30.242Z,18.47
2023-01-02T15:36:01.428Z,18.17
2023-01-02T15:38:31.989Z,19.77
2023-01-02T15:41:00.656Z,19.47
2023-01-02T15:43:48.920Z,19.60
2023-01-02T15:46:18.174Z,19.20
2023-01-02T15:48:50.168Z,19.53
2023-01-02T15:51:20.773Z,20.00
2023-01-02T15:54:14.217Z,20.97
2023-01-02T15:56:43.277Z,21.60
2023-01-02T15:59:27.015Z,23.47
2023-01-02T16:01:55.900Z,24.27
2023-01-02T16:04:29.096Z,23.63
2023-01-02T16:06:59.338Z,22.60
2023-01-02T16:09:31.377Z,21.40
2023-01-02T16:12:03.226Z,22.47
2023-01-02T16:14:36.574Z,21.90
2023-01-02T16:17:07.399Z,22.10
2023-01-02T16:19:38.913Z,20.83
2023-01-02T16:22:18.187Z,21.23
2023-01-02T16:24:55.064Z,20.37
2023-01-02T16:27:27.393Z,20.33
2023-01-02T16:29:56.182Z,19.37
2023-01-02T16:32:30.233Z,21.07
2023-01-02T16:35:04.067Z,20.30
2023-01-02T16:37:34.635Z,21.20
2023-01-02T16:41:00.865Z,20.60
2023-01-02T16:43:41.308Z,20.33
2023-01-02T16:46:16.394Z,19.10
2023-01-02T16:48:45.709Z,20.90
2023-01-02T16:51:16.584Z,19.77
2023-01-02T16:53:46.006Z,18.73
2023-01-02T16:56:15.671Z,20.37
2023-01-02T16:58:45.539Z,19.73
2023-01-02T17:01:15.923Z,20.37
2023-01-02T17:03:45.475Z,21.47
2023-01-02T17:06:15.809Z,22.33
2023-01-02T17:08:44.526Z,22.47
2023-01-02T17:11:15.947Z,23.00
2023-01-02T17:13:46.404Z,21.93
2023-01-02T17:16:15.356Z,21.70
2023-01-02T17:18:43.871Z,24.50
2023-01-02T17:21:13.089Z,22.73
2023-01-02T17:23:41.675Z,23.27
2023-01-02T17:26:10.496Z,23.73
2023-01-02T17:28:39.126Z,25.40
2023-01-02T17:31:09.273Z,25.43
2023-01-02T17:33:37.960Z,27.97
2023-01-02T17:36:07.717Z,26.83
2023-01-02T17:38:37.007Z,25.53
2023-01-02T17:41:05.567Z,23.93
2023-01-02T17:43:34.085Z,23.90
2023-01-02T17:46:30.344Z,24.53
2023-01-02T17:48:56.422Z,24.23
2023-01-02T17:51:25.489Z,25.70
2023-01-02T17:53:55.919Z,24.50
2023-01-02T17:56:25.350Z,24.73
2023-01-02T17:58:53.768Z,24.90
2023-01-02T18:01:22.504Z,24.97
2023-01-02T18:03:51.087Z,25.73
2023-01-02T18:06:21.066Z,25.07
2023-01-02T18:08:50.473Z,25.23
2023-01-02T18:11:19.011Z,24.70
2023-01-02T18:13:49.557Z,24.27
2023-01-02T18:16:21.311Z,25.20
2023-01-02T18:18:51.122Z,25.07
2023-01-02T18:21:23.044Z,24.40
2023-01-02T18:23:57.030Z,22.53
2023-01-02T18:26:27.001Z,21.57
2023-01-02T18:29:02.827Z,22.23
2023-01-02T18:31:41.978Z,21.90
2023-01-02T18:34:46.230Z,21.30
2023-01-02T18:37:19.539Z,20.37
2023-01-02T18:39:49.651Z,20.67
2023-01-02T18:42:21.695Z,21.50
2023-01-02T18:44:52.777Z,20.23
2023-01-02T18:47:29.241Z,21.27
2023-01-02T18:50:02.105Z,21.13
2023-01-02T18:52:36.342Z,22.53
2023-01-02T18:55:21.596Z,22.87
2023-01-02T18:57:55.523Z,22.03
2023-01-02T19:00:25.943Z,22.47
2023-01-02T19:02:57.456Z,21.37
2023-01-02T19:05:30.315Z,21.60
2023-01-02T19:08:14.608Z,22.63
2023-01-02T19:10:46.120Z,21.73
2023-01-02T19:13:18.881Z,21.40
2023-01-02T19:15:51.204Z,19.67
2023-01-02T19:18:36.003Z,21.07
2023-01-02T19:21:15.625Z,20.10
2023-01-02T19:23:53.545Z,20.77
2023-01-02T19:26:27.528Z,19.50
2023-01-02T19:29:00.454Z,19.40
2023-01-02T19:31:37.666Z,19.73
2023-01-02T19:34:24.606Z,19.73
2023-01-02T19:37:00.124Z,19.70
2023-01-02T19:39:36.010Z,19.07
2023-01-02T19:42:20.910Z,19.20
2023-01-02T19:44:51.015Z,18.47
2023-01-02T19:47:20.901Z,19.67
2023-01-02T19:49:49.701Z,20.17
2023-01-02T19:52:18.971Z,18.77
2023-01-02T19:54:49.145Z,19.17
2023-01-02T19:57:19.650Z,19.57
2023-01-02T19:59:49.256Z,18.47
2023-01-02T20:02:20.322Z,18.30
2023-01-02T20:04:52.361Z,19.27
2023-01-02T20:07:21.729Z,20.43
2023-01-02T20:09:52.269Z,19.33
2023-01-02T20:12:40.631Z,20.33
2023-01-02T20:15:12.253Z,21.47
2023-01-02T20:17:41.228Z,21.77
2023-01-02T20:20:13.343Z,20.57
2023-01-02T20:22:43.620Z,20.47
2023-01-02T20:25:15.912Z,21.40
2023-01-02T20:27:44.507Z,21.17
2023-01-02T20:30:18.769Z,21.27
2023-01-02T20:32:50.754Z,19.87
2023-01-02T20:35:19.391Z,18.80
2023-01-02T20:37:48.708Z,17.77
2023-01-02T20:40:18.651Z,18.90
2023-01-02T20:42:47.158Z,18.20
2023-01-02T20:45:15.701Z,19.27
2023-01-02T20:47:44.193Z,18.23
2023-01-02T20:50:12.803Z,18.73
2023-01-02T20:52:41.259Z,18.57
2023-01-02T20:55:10.701Z,18.40
2023-01-02T20:57:40.679Z,18.23
2023-01-02T21:00:10.439Z,18.13
2023-01-02T21:02:39.177Z,18.97
2023-01-02T21:05:08.065Z,18.30
2023-01-02T21:07:36.646Z,17.17
2023-01-02T21:10:05.438Z,16.57
2023-01-02T21:12:51.192Z,18.10
2023-01-02T21:15:38.949Z,17.97
2023-01-02T21:18:07.622Z,18.33
2023-01-02T21:20:39.879Z,15.80
2023-01-02T21:23:11.503Z,15.43
2023-01-02T21:25:40.309Z,17.00
2023-01-02T21:28:12.378Z,17.23
2023-01-02T21:30:43.649Z,16.53
2023-01-02T21:33:15.062Z,16.33
2023-01-02T21:35:47.202Z,15.03
2023-01-02T21:38:15.914Z,15.83
2023-01-02T21:40:45.541Z,15.40
2023-01-02T21:43:14.354Z,15.93
2023-01-02T21:45:44.172Z,16.03
2023-01-02T21:48:12.723Z,15.23
2023-01-02T21:50:41.533Z,18.07
2023-01-02T21:53:10.009Z,24.17
2023-01-02T21:55:38.517Z,16.70
2023-01-02T21:58:14.930Z,16.37
2023-01-02T22:00:45.301Z,14.63
2023-01-02T22:03:13.966Z,13.40
2023-01-02T22:05:42.610Z,13.20
2023-01-02T22:08:11.111Z,13.97
2023-01-02T22:10:39.742Z,16.30
2023-01-02T22:13:08.232Z,13.57
2023-01-02T22:15:36.711Z,14.67
2023-01-02T22:18:06.725Z,14.83
2023-01-02T22:20:35.391Z,16.43
2023-01-02T22:23:03.887Z,13.53
2023-01-02T22:25:32.795Z,13.47
2023-01-02T22:28:01.531Z,13.90
2023-01-02T22:30:34.498Z,13.73
2023-01-02T22:33:03.992Z,14.53
2023-01-02T22:35:34.216Z,13.13
2023-01-02T22:38:02.690Z,14.00
2023-01-02T22:40:31.200Z,14.87
2023-01-02T22:43:02.948Z,14.90
2023-01-02T22:45:38.333Z,13.20
2023-01-02T22:48:15.678Z,13.67
2023-01-02T22:50:47.341Z,12.17
2023-01-02T22:53:22.152Z,11.97
2023-01-02T22:55:50.790Z,11.23
2023-01-02T22:58:19.925Z,11.77
2023-01-02T23:00:50.738Z,10.63
2023-01-02T23:03:19.213Z,10.87
2023-01-02T23:05:49.019Z,10.43
2023-01-02T23:08:17.789Z,10.00
2023-01-02T23:10:46.293Z,9.93
2023-01-02T23:13:14.784Z,9.43
2023-01-02T23:15:57.014Z,9.30
2023-01-02T23:18:58.365Z,9.40
2023-01-02T23:21:29.794Z,8.70
2023-01-02T23:23:58.471Z,9.80
2023-01-02T23:26:40.968Z,8.43
2023-01-02T23:29:09.859Z,9.20
2023-01-02T23:31:40.142Z,8.93
2023-01-02T23:34:09.334Z,8.23
2023-01-02T23:36:39.991Z,8.63
2023-01-02T23:39:11.696Z,9.23
2023-01-02T23:41:40.475Z,8.47
2023-01-02T23:44:09.686Z,7.97
2023-01-02T23:46:39.165Z,8.20
2023-01-02T23:49:08.260Z,7.63
2023-01-02T23:51:38.520Z,7.93
2023-01-02T23:54:08.483Z,7.43
2023-01-02T23:56:38.825Z,7.43
2023-01-02T23:59:13.761Z,31.20
